createdAt,value
2022-11-09T00:00:46.184Z,17.08
2022-11-09T00:03:15.636Z,17.11
2022-11-09T00:05:43.711Z,17.22
2022-11-09T00:08:12.740Z,17.02
2022-11-09T00:10:40.669Z,17.25
2022-11-09T00:13:08.599Z,17.08
2022-11-09T00:15:36.831Z,17.19
2022-11-09T00:18:04.964Z,17.12
2022-11-09T00:20:34.282Z,17.04
2022-11-09T00:23:02.258Z,17.00
2022-11-09T00:25:30.239Z,17.02
2022-11-09T00:27:58.383Z,17.06
2022-11-09T00:30:27.909Z,17.04
2022-11-09T00:32:56.813Z,17.08
2022-11-09T00:35:24.761Z,16.99
2022-11-09T00:37:54.231Z,16.96
2022-11-09T00:40:22.183Z,16.97
2022-11-09T00:42:50.170Z,17.12
2022-11-09T00:45:18.529Z,17.01
2022-11-09T00:47:46.539Z,17.07
2022-11-09T00:50:15.667Z,17.04
2022-11-09T00:52:44.692Z,16.79
2022-11-09T00:55:14.583Z,17.10
2022-11-09T00:57:42.558Z,17.07
2022-11-09T01:00:12.231Z,17.04
2022-11-09T01:02:40.284Z,16.97
2022-11-09T01:05:08.752Z,16.97
2022-11-09T01:07:37.929Z,17.06
2022-11-09T01:10:07.076Z,17.00
2022-11-09T01:12:36.464Z,17.04
2022-11-09T01:15:04.954Z,17.05
2022-11-09T01:17:35.167Z,16.85
2022-11-09T01:20:03.291Z,17.04
2022-11-09T01:22:31.253Z,16.90
2022-11-09T01:24:59.223Z,16.93
2022-11-09T01:27:27.195Z,16.83
2022-11-09T01:29:56.625Z,16.95
2022-11-09T01:32:25.495Z,16.95
2022-11-09T01:34:53.466Z,16.97
2022-11-09T01:37:21.386Z,16.97
2022-11-09T01:39:49.398Z,16.90
2022-11-09T01:42:24.229Z,16.99
2022-11-09T01:45:25.475Z,17.12
2022-11-09T01:47:59.047Z,17.07
2022-11-09T01:50:37.293Z,17.07
2022-11-09T01:53:10.556Z,17.09
2022-11-09T01:55:40.545Z,17.02
2022-11-09T01:58:11.690Z,17.09
2022-11-09T02:00:45.818Z,17.09
2022-11-09T02:03:16.959Z,17.07
2022-11-09T02:05:45.784Z,16.98
2022-11-09T02:08:18.168Z,16.93
2022-11-09T02:10:51.471Z,16.89
2022-11-09T02:13:22.564Z,17.01
2022-11-09T02:15:52.721Z,17.01
2022-11-09T02:18:21.397Z,17.06
2022-11-09T02:20:53.358Z,17.12
2022-11-09T02:23:24.953Z,16.93
2022-11-09T02:25:56.953Z,17.03
2022-11-09T02:28:26.165Z,16.94
2022-11-09T02:30:56.709Z,16.89
2022-11-09T02:33:25.900Z,16.98
2022-11-09T02:35:56.118Z,16.83
2022-11-09T02:38:24.246Z,16.99
2022-11-09T02:40:54.016Z,16.89
2022-11-09T02:43:22.482Z,16.93
2022-11-09T02:45:50.765Z,16.90
2022-11-09T02:48:18.746Z,16.88
2022-11-09T02:50:49.205Z,16.73
2022-11-09T02:53:18.817Z,16.75
2022-11-09T02:55:48.093Z,16.95
2022-11-09T02:58:16.466Z,16.87
2022-11-09T03:00:45.413Z,16.89
2022-11-09T03:03:14.392Z,16.69
2022-11-09T03:05:44.800Z,16.73
2022-11-09T03:08:14.564Z,16.75
2022-11-09T03:10:44.820Z,16.82
2022-11-09T03:13:13.366Z,16.82
2022-11-09T03:15:41.809Z,16.84
2022-11-09T03:18:09.881Z,16.78
2022-11-09T03:20:38.551Z,16.83
2022-11-09T03:23:06.547Z,16.77
2022-11-09T03:25:35.683Z,16.72
2022-11-09T03:28:07.579Z,16.69
2022-11-09T03:30:36.692Z,16.73
2022-11-09T03:33:10.037Z,16.68
2022-11-09T03:35:39.087Z,16.63
2022-11-09T03:38:07.991Z,16.73
2022-11-09T03:40:37.194Z,16.56
2022-11-09T03:43:06.708Z,16.62
2022-11-09T03:45:35.335Z,16.48
2022-11-09T03:48:03.344Z,16.65
2022-11-09T03:50:33.285Z,16.58
2022-11-09T03:53:01.841Z,16.59
2022-11-09T03:55:30.780Z,16.56
2022-11-09T03:57:58.740Z,16.56
2022-11-09T04:00:31.295Z,16.52
2022-11-09T04:03:00.399Z,16.40
2022-11-09T04:05:28.684Z,16.44
2022-11-09T04:07:58.006Z,16.40
2022-11-09T04:10:27.605Z,16.42
2022-11-09T04:12:55.774Z,16.53
2022-11-09T04:15:24.032Z,16.47
2022-11-09T04:17:58.389Z,16.57
2022-11-09T04:20:26.751Z,16.58
2022-11-09T04:22:55.431Z,16.68
2022-11-09T04:25:23.557Z,16.62
2022-11-09T04:27:55.666Z,16.51
2022-11-09T04:30:23.875Z,16.66
2022-11-09T04:32:51.849Z,16.65
2022-11-09T04:35:21.195Z,16.60
2022-11-09T04:37:55.027Z,16.58
2022-11-09T04:40:23.687Z,16.38
2022-11-09T04:42:51.679Z,16.48
2022-11-09T04:45:19.696Z,16.49
2022-11-09T04:47:47.857Z,16.44
2022-11-09T04:50:16.033Z,16.45
2022-11-09T04:52:45.293Z,16.43
2022-11-09T04:55:13.290Z,16.52
2022-11-09T04:57:41.365Z,16.51
2022-11-09T05:00:10.840Z,16.53
2022-11-09T05:02:38.884Z,16.57
2022-11-09T05:05:08.016Z,16.47
2022-11-09T05:07:36.030Z,16.33
2022-11-09T05:10:06.089Z,16.31
2022-11-09T05:12:34.075Z,16.29
2022-11-09T05:15:02.110Z,16.39
2022-11-09T05:17:30.062Z,16.37
2022-11-09T05:19:58.030Z,16.40
2022-11-09T05:22:43.641Z,16.36
2022-11-09T05:25:12.944Z,16.36
2022-11-09T05:27:40.874Z,16.23
2022-11-09T05:30:09.839Z,16.27
2022-11-09T05:32:40.434Z,16.22
2022-11-09T05:35:09.178Z,16.18
2022-11-09T05:37:39.172Z,16.12
2022-11-09T05:40:09.084Z,16.19
2022-11-09T05:42:41.140Z,16.23
2022-11-09T05:45:40.354Z,16.21
2022-11-09T05:47:57.847Z,16.22
2022-11-09T05:50:25.895Z,16.17
2022-11-09T05:53:11.387Z,16.09
2022-11-09T05:55:39.718Z,16.06
2022-11-09T05:58:09.246Z,15.95
2022-11-09T06:00:37.572Z,15.93
2022-11-09T06:03:07.057Z,15.87
2022-11-09T06:05:35.652Z,15.94
2022-11-09T06:08:04.577Z,16.04
2022-11-09T06:10:32.977Z,16.05
2022-11-09T06:13:01.097Z,16.01
2022-11-09T06:15:30.806Z,16.10
2022-11-09T06:17:59.655Z,16.08
2022-11-09T06:20:28.974Z,16.09
2022-11-09T06:23:02.444Z,16.08
2022-11-09T06:25:31.677Z,16.25
2022-11-09T06:28:00.031Z,15.96
2022-11-09T06:30:28.124Z,16.20
2022-11-09T06:33:01.055Z,16.21
2022-11-09T06:35:29.421Z,16.00
2022-11-09T06:37:58.493Z,16.13
2022-11-09T06:40:26.991Z,16.20
2022-11-09T06:42:57.592Z,15.98
2022-11-09T06:45:25.628Z,16.00
2022-11-09T06:47:56.425Z,16.03
2022-11-09T06:50:26.223Z,16.06
2022-11-09T06:52:57.295Z,16.06
2022-11-09T06:55:25.567Z,16.13
2022-11-09T06:57:53.625Z,16.21
2022-11-09T07:00:21.885Z,15.92
2022-11-09T07:02:49.899Z,16.12
2022-11-09T07:05:18.000Z,16.14
2022-11-09T07:07:47.746Z,16.15
2022-11-09T07:10:16.035Z,16.10
2022-11-09T07:12:44.025Z,16.07
2022-11-09T07:15:13.215Z,16.33
2022-11-09T07:17:41.826Z,16.01
2022-11-09T07:20:11.247Z,16.02
2022-11-09T07:22:40.158Z,16.15
2022-11-09T07:25:11.911Z,16.36
2022-11-09T07:27:39.936Z,16.17
2022-11-09T07:30:09.179Z,16.23
2022-11-09T07:33:07.373Z,16.35
2022-11-09T07:35:26.334Z,16.46
2022-11-09T07:37:54.519Z,16.32
2022-11-09T07:40:23.889Z,16.48
2022-11-09T07:42:51.864Z,16.51
2022-11-09T07:45:19.913Z,16.53
2022-11-09T07:47:47.856Z,16.71
2022-11-09T07:50:16.272Z,16.89
2022-11-09T07:52:44.351Z,16.95
2022-11-09T07:55:12.348Z,16.99
2022-11-09T07:57:44.245Z,16.79
2022-11-09T08:00:13.178Z,16.74
2022-11-09T08:02:41.133Z,16.90
2022-11-09T08:05:09.298Z,16.70
2022-11-09T08:07:37.420Z,16.69
2022-11-09T08:10:06.182Z,16.74
2022-11-09T08:12:37.032Z,16.64
2022-11-09T08:15:07.932Z,16.42
2022-11-09T08:17:35.966Z,16.63
2022-11-09T08:20:04.106Z,16.43
2022-11-09T08:22:32.109Z,16.49
2022-11-09T08:25:00.048Z,16.63
2022-11-09T08:27:31.692Z,16.53
2022-11-09T08:29:59.862Z,16.44
2022-11-09T08:32:29.319Z,16.53
2022-11-09T08:34:57.512Z,16.70
2022-11-09T08:37:25.588Z,16.71
2022-11-09T08:39:53.597Z,16.89
2022-11-09T08:42:21.692Z,16.67
2022-11-09T08:44:49.736Z,16.88
2022-11-09T08:47:17.745Z,16.76
2022-11-09T08:49:47.201Z,16.66
2022-11-09T08:52:15.328Z,16.64
2022-11-09T08:54:43.336Z,16.33
2022-11-09T08:57:11.360Z,16.09
2022-11-09T08:59:39.542Z,15.92
2022-11-09T09:02:08.110Z,16.09
2022-11-09T09:04:36.120Z,16.09
2022-11-09T09:07:05.792Z,16.36
2022-11-09T09:09:34.664Z,16.28
2022-11-09T09:12:02.935Z,16.33
2022-11-09T09:14:30.992Z,16.63
2022-11-09T09:16:59.063Z,16.52
2022-11-09T09:19:27.045Z,16.48
2022-11-09T09:21:55.578Z,16.72
2022-11-09T09:24:25.025Z,16.59
2022-11-09T09:26:53.046Z,16.44
2022-11-09T09:29:21.061Z,16.54
2022-11-09T09:31:49.233Z,16.56
2022-11-09T09:34:17.273Z,16.98
2022-11-09T09:36:48.328Z,16.99
2022-11-09T09:39:32.715Z,16.00
2022-11-09T09:42:03.257Z,17.04
2022-11-09T09:44:39.198Z,16.89
2022-11-09T09:47:13.440Z,16.84
2022-11-09T09:49:44.983Z,16.69
2022-11-09T09:52:20.918Z,16.54
2022-11-09T09:54:59.220Z,16.69
2022-11-09T09:57:29.951Z,16.68
2022-11-09T10:00:01.727Z,16.83
2022-11-09T10:02:40.229Z,16.86
2022-11-09T10:05:11.987Z,16.71
2022-11-09T10:07:45.028Z,16.76
2022-11-09T10:10:37.520Z,16.77
2022-11-09T10:13:48.749Z,16.97
2022-11-09T10:16:24.408Z,17.17
2022-11-09T10:19:27.574Z,17.30
2022-11-09T10:22:04.278Z,17.47
2022-11-09T10:24:58.759Z,17.17
2022-11-09T10:27:35.670Z,16.78
2022-11-09T10:30:09.651Z,16.88
2022-11-09T10:32:38.090Z,16.65
2022-11-09T10:35:16.317Z,16.45
2022-11-09T10:37:46.817Z,16.73
2022-11-09T10:40:19.977Z,16.67
2022-11-09T10:43:12.451Z,17.02
2022-11-09T10:46:07.949Z,17.28
2022-11-09T10:48:55.872Z,17.25
2022-11-09T10:51:46.343Z,17.21
2022-11-09T10:54:35.469Z,18.17
2022-11-09T10:57:23.829Z,22.45
2022-11-09T11:00:18.165Z,25.22
2022-11-09T11:03:13.077Z,26.82
2022-11-09T11:06:01.968Z,28.47
2022-11-09T11:08:50.418Z,25.74
2022-11-09T11:11:38.528Z,24.96
2022-11-09T11:14:31.586Z,22.47
2022-11-09T11:17:25.149Z,22.61
2022-11-09T11:20:29.836Z,23.20
2022-11-09T11:23:18.725Z,22.28
2022-11-09T11:26:24.960Z,21.90
2022-11-09T11:29:26.579Z,21.89
2022-11-09T11:32:16.800Z,23.62
2022-11-09T11:35:13.155Z,22.88
2022-11-09T11:38:11.415Z,22.21
2022-11-09T11:41:06.903Z,22.44
2022-11-09T11:44:01.591Z,22.31
2022-11-09T11:46:50.157Z,23.37
2022-11-09T11:49:57.743Z,24.83
2022-11-09T11:53:01.286Z,23.76
2022-11-09T11:56:01.706Z,21.90
2022-11-09T11:59:19.929Z,22.59
2022-11-09T12:02:28.585Z,20.57
2022-11-09T12:05:32.229Z,20.58
2022-11-09T12:08:23.260Z,20.26
2022-11-09T12:11:20.499Z,20.45
2022-11-09T12:14:18.576Z,20.31
2022-11-09T12:17:15.011Z,19.84
2022-11-09T12:20:16.392Z,20.32
2022-11-09T12:23:30.139Z,20.56
2022-11-09T12:26:24.771Z,19.92
2022-11-09T12:29:19.593Z,19.80
2022-11-09T12:32:18.388Z,19.36
2022-11-09T12:35:20.718Z,19.66
2022-11-09T12:38:15.986Z,19.80
2022-11-09T12:41:09.305Z,19.71
2022-11-09T12:44:03.472Z,19.94
2022-11-09T12:46:55.314Z,21.53
2022-11-09T12:49:44.161Z,22.14
2022-11-09T12:52:31.884Z,22.84
2022-11-09T12:55:23.288Z,22.81
2022-11-09T12:58:22.647Z,23.36
2022-11-09T13:01:13.520Z,21.52
2022-11-09T13:04:02.098Z,20.82
2022-11-09T13:07:20.316Z,20.40
2022-11-09T13:10:21.772Z,20.03
2022-11-09T13:13:24.993Z,19.05
2022-11-09T13:16:32.440Z,19.15
2022-11-09T13:19:54.218Z,19.29
2022-11-09T13:23:01.264Z,18.97
2022-11-09T13:25:52.898Z,18.91
2022-11-09T13:28:46.029Z,18.64
2022-11-09T13:32:01.311Z,18.68
2022-11-09T13:34:49.676Z,18.53
2022-11-09T13:37:49.329Z,18.45
2022-11-09T13:40:48.318Z,18.49
2022-11-09T13:43:37.652Z,18.29
2022-11-09T13:46:30.346Z,18.29
2022-11-09T13:49:45.004Z,18.24
2022-11-09T13:52:49.619Z,18.04
2022-11-09T13:55:40.521Z,18.25
2022-11-09T13:58:31.525Z,17.83
2022-11-09T14:01:37.910Z,18.25
2022-11-09T14:04:28.333Z,18.21
2022-11-09T14:07:23.138Z,18.31
2022-11-09T14:10:21.878Z,18.16
2022-11-09T14:13:28.698Z,18.01
2022-11-09T14:16:25.289Z,18.03
2022-11-09T14:19:29.683Z,17.83
2022-11-09T14:22:19.529Z,17.68
2022-11-09T14:25:15.461Z,17.69
2022-11-09T14:28:02.346Z,17.75
2022-11-09T14:30:48.782Z,17.68
2022-11-09T14:33:36.354Z,17.52
2022-11-09T14:36:24.547Z,17.54
2022-11-09T14:39:22.177Z,17.52
2022-11-09T14:42:13.789Z,17.53
2022-11-09T14:45:00.803Z,17.63
2022-11-09T14:47:50.732Z,17.77
2022-11-09T14:50:38.738Z,17.51
2022-11-09T14:53:29.728Z,17.40
2022-11-09T14:56:18.933Z,17.51
2022-11-09T14:59:06.817Z,17.32
2022-11-09T15:02:01.723Z,17.39
2022-11-09T15:04:59.683Z,17.04
2022-11-09T15:07:48.026Z,16.94
2022-11-09T15:10:36.918Z,17.04
2022-11-09T15:13:32.221Z,17.22
2022-11-09T15:16:24.426Z,16.80
2022-11-09T15:19:22.836Z,16.89
2022-11-09T15:22:43.492Z,16.93
2022-11-09T15:25:33.397Z,16.77
2022-11-09T15:28:25.351Z,16.72
2022-11-09T15:31:16.145Z,16.86
2022-11-09T15:34:02.658Z,16.69
2022-11-09T15:36:55.225Z,16.43
2022-11-09T15:39:41.701Z,16.50
2022-11-09T15:42:28.621Z,16.56
2022-11-09T15:45:19.127Z,16.28
2022-11-09T15:48:06.207Z,16.31
2022-11-09T15:50:53.342Z,16.39
2022-11-09T15:53:40.950Z,16.40
2022-11-09T15:56:27.780Z,16.30
2022-11-09T15:59:20.246Z,16.21
2022-11-09T16:02:11.005Z,15.99
2022-11-09T16:04:57.465Z,16.07
2022-11-09T16:07:50.551Z,16.23
2022-11-09T16:10:39.660Z,15.96
2022-11-09T16:13:26.317Z,15.88
2022-11-09T16:16:15.465Z,15.77
2022-11-09T16:19:03.271Z,15.36
2022-11-09T16:21:49.632Z,15.71
2022-11-09T16:24:36.650Z,15.74
2022-11-09T16:27:48.616Z,15.80
2022-11-09T16:30:29.506Z,15.70
2022-11-09T16:33:15.951Z,15.66
2022-11-09T16:36:07.725Z,15.64
2022-11-09T16:38:56.234Z,15.44
2022-11-09T16:41:44.010Z,15.69
2022-11-09T16:44:35.262Z,15.86
2022-11-09T16:47:22.480Z,15.79
2022-11-09T16:50:09.642Z,15.90
2022-11-09T16:52:57.533Z,15.95
2022-11-09T16:55:43.995Z,15.85
2022-11-09T16:58:30.760Z,16.03
2022-11-09T17:01:23.025Z,15.96
2022-11-09T17:04:10.442Z,15.98
2022-11-09T17:06:57.214Z,15.75
2022-11-09T17:09:45.453Z,15.84
2022-11-09T17:12:32.628Z,15.70
2022-11-09T17:15:20.133Z,16.05
2022-11-09T17:18:09.350Z,15.71
2022-11-09T17:20:56.004Z,15.89
2022-11-09T17:23:44.251Z,15.67
2022-11-09T17:26:33.401Z,15.56
2022-11-09T17:29:20.322Z,15.65
2022-11-09T17:32:07.322Z,15.68
2022-11-09T17:34:54.099Z,15.49
2022-11-09T17:37:40.558Z,15.67
2022-11-09T17:40:27.214Z,15.68
2022-11-09T17:43:15.719Z,15.65
2022-11-09T17:46:05.896Z,15.48
2022-11-09T17:48:52.421Z,15.55
2022-11-09T17:51:39.253Z,15.56
2022-11-09T17:54:31.346Z,15.52
2022-11-09T17:57:20.833Z,15.25
2022-11-09T18:00:10.843Z,15.37
2022-11-09T18:02:57.287Z,15.20
2022-11-09T18:05:44.693Z,15.42
2022-11-09T18:08:31.375Z,15.39
2022-11-09T18:11:19.087Z,15.66
2022-11-09T18:14:05.562Z,15.46
2022-11-09T18:16:53.336Z,15.49
2022-11-09T18:19:40.602Z,15.63
2022-11-09T18:22:27.157Z,15.52
2022-11-09T18:25:13.914Z,15.31
2022-11-09T18:28:00.867Z,15.38
2022-11-09T18:30:47.398Z,15.34
2022-11-09T18:33:36.099Z,15.29
2022-11-09T18:36:23.464Z,15.15
2022-11-09T18:39:10.141Z,15.32
2022-11-09T18:41:57.038Z,15.17
2022-11-09T18:44:44.075Z,15.04
2022-11-09T18:47:30.834Z,15.21
2022-11-09T18:50:19.567Z,15.14
2022-11-09T18:53:06.002Z,15.29
2022-11-09T18:55:53.155Z,15.12
2022-11-09T18:58:39.809Z,15.04
2022-11-09T19:01:27.557Z,15.02
2022-11-09T19:04:15.161Z,15.07
2022-11-09T19:07:03.357Z,14.92
2022-11-09T19:09:55.401Z,15.06
2022-11-09T19:12:42.928Z,14.95
2022-11-09T19:15:29.821Z,15.08
2022-11-09T19:18:16.356Z,14.97
2022-11-09T19:21:03.539Z,14.86
2022-11-09T19:23:51.618Z,15.01
2022-11-09T19:26:38.141Z,14.82
2022-11-09T19:29:24.493Z,15.04
2022-11-09T19:32:11.210Z,14.86
2022-11-09T19:34:57.890Z,14.95
2022-11-09T19:37:44.686Z,14.98
2022-11-09T19:40:38.366Z,14.81
2022-11-09T19:43:26.074Z,14.68
2022-11-09T19:46:12.985Z,14.73
2022-11-09T19:48:59.839Z,14.74
2022-11-09T19:51:46.363Z,14.73
2022-11-09T19:54:33.026Z,14.80
2022-11-09T19:57:21.284Z,14.67
2022-11-09T20:00:09.036Z,14.63
2022-11-09T20:02:55.413Z,14.65
2022-11-09T20:05:42.018Z,14.73
2022-11-09T20:08:28.849Z,14.60
2022-11-09T20:11:37.909Z,14.68
2022-11-09T20:14:25.572Z,14.73
2022-11-09T20:17:12.538Z,14.98
2022-11-09T20:19:58.898Z,14.88
2022-11-09T20:22:45.566Z,14.79
2022-11-09T20:25:32.212Z,14.80
2022-11-09T20:28:19.379Z,14.84
2022-11-09T20:31:11.427Z,14.71
2022-11-09T20:33:58.125Z,14.77
2022-11-09T20:36:45.851Z,14.71
2022-11-09T20:39:32.603Z,14.65
2022-11-09T20:42:19.287Z,14.90
2022-11-09T20:45:06.977Z,14.85
2022-11-09T20:48:10.661Z,14.72
2022-11-09T20:51:04.749Z,14.89
2022-11-09T20:53:51.846Z,14.82
2022-11-09T20:56:38.789Z,14.92
2022-11-09T20:59:25.423Z,14.94
2022-11-09T21:02:14.844Z,14.80
2022-11-09T21:05:02.737Z,14.98
2022-11-09T21:07:49.218Z,14.99
2022-11-09T21:10:36.529Z,14.81
2022-11-09T21:13:23.552Z,14.98
2022-11-09T21:16:11.834Z,14.83
2022-11-09T21:18:58.587Z,14.72
2022-11-09T21:21:46.579Z,14.83
2022-11-09T21:24:50.884Z,14.70
2022-11-09T21:27:55.229Z,14.76
2022-11-09T21:30:41.909Z,14.66
2022-11-09T21:33:28.631Z,14.74
2022-11-09T21:36:15.836Z,14.98
2022-11-09T21:39:03.787Z,14.84
2022-11-09T21:41:50.501Z,14.94
2022-11-09T21:44:37.194Z,14.66
2022-11-09T21:47:25.026Z,14.66
2022-11-09T21:50:12.935Z,14.57
2022-11-09T21:52:59.932Z,14.60
2022-11-09T21:55:48.231Z,14.49
2022-11-09T21:58:34.923Z,14.35
2022-11-09T22:01:22.802Z,14.39
2022-11-09T22:04:09.868Z,14.42
2022-11-09T22:06:56.785Z,14.32
2022-11-09T22:10:08.882Z,14.23
2022-11-09T22:13:09.803Z,14.29
2022-11-09T22:16:09.233Z,14.22
2022-11-09T22:19:13.724Z,14.34
2022-11-09T22:22:00.298Z,14.19
2022-11-09T22:24:47.121Z,14.16
2022-11-09T22:27:34.118Z,14.39
2022-11-09T22:30:22.657Z,14.45
2022-11-09T22:33:09.213Z,14.11
2022-11-09T22:35:56.467Z,14.36
2022-11-09T22:38:42.993Z,14.35
2022-11-09T22:41:29.629Z,14.31
2022-11-09T22:44:16.775Z,14.52
2022-11-09T22:47:07.186Z,14.66
2022-11-09T22:49:53.717Z,14.34
2022-11-09T22:52:41.007Z,14.24
2022-11-09T22:55:27.697Z,14.27
2022-11-09T22:58:14.137Z,14.52
2022-11-09T23:01:08.960Z,14.36
2022-11-09T23:03:57.144Z,14.49
2022-11-09T23:06:44.312Z,14.31
2022-11-09T23:09:31.246Z,14.81
2022-11-09T23:12:18.093Z,14.72
2022-11-09T23:15:05.524Z,14.68
2022-11-09T23:18:11.551Z,14.37
2022-11-09T23:21:01.466Z,14.59
2022-11-09T23:23:48.249Z,14.43
2022-11-09T23:26:35.419Z,14.57
2022-11-09T23:29:22.043Z,14.42
2022-11-09T23:32:09.143Z,14.39
2022-11-09T23:34:55.477Z,14.53
2022-11-09T23:37:43.176Z,14.32
2022-11-09T23:40:32.198Z,14.13
2022-11-09T23:43:19.744Z,14.45
2022-11-09T23:46:08.732Z,14.14
2022-11-09T23:48:55.049Z,14.29
2022-11-09T23:51:41.826Z,14.36
2022-11-09T23:54:30.064Z,14.15
2022-11-09T23:57:16.432Z,13.88
